sensor_id;sensor_type;location;lat;lon;timestamp;P1;durP1;ratioP1;P2;durP2;ratioP2
32876;SDS011;19226;51.600;8.034;2022-08-01T00:01:42;22.48;;;13.10;;
32876;SDS011;19226;51.600;8.034;2022-08-01T00:06:37;17.23;;;13.52;;
32876;SDS011;19226;51.600;8.034;2022-08-01T00:09:05;22.95;;;13.93;;
32876;SDS011;19226;51.600;8.034;2022-08-01T00:11:31;18.77;;;13.02;;
32876;SDS011;19226;51.600;8.034;2022-08-01T00:13:59;22.58;;;13.82;;
32876;SDS011;19226;51.600;8.034;2022-08-01T00:16:26;27.58;;;14.48;;
32876;SDS011;19226;51.600;8.034;2022-08-01T00:18:54;27.95;;;13.75;;
32876;SDS011;19226;51.600;8.034;2022-08-01T00:21:21;20.38;;;12.48;;
32876;SDS011;19226;51.600;8.034;2022-08-01T00:23:47;20.67;;;13.77;;
32876;SDS011;19226;51.600;8.034;2022-08-01T00:26:13;18.85;;;12.60;;
32876;SDS011;19226;51.600;8.034;2022-08-01T00:28:40;22.92;;;13.68;;
32876;SDS011;19226;51.600;8.034;2022-08-01T00:31:06;25.08;;;13.68;;
32876;SDS011;19226;51.600;8.034;2022-08-01T00:33:33;25.52;;;13.88;;
32876;SDS011;19226;51.600;8.034;2022-08-01T00:36:02;22.50;;;12.05;;
32876;SDS011;19226;51.600;8.034;2022-08-01T00:38:28;17.63;;;12.68;;
32876;SDS011;19226;51.600;8.034;2022-08-01T00:40:54;21.23;;;13.73;;
32876;SDS011;19226;51.600;8.034;2022-08-01T00:43:20;20.98;;;12.93;;
32876;SDS011;19226;51.600;8.034;2022-08-01T00:45:47;22.35;;;13.07;;
32876;SDS011;19226;51.600;8.034;2022-08-01T00:48:13;22.67;;;13.45;;
32876;SDS011;19226;51.600;8.034;2022-08-01T00:50:39;21.67;;;13.38;;
32876;SDS011;19226;51.600;8.034;2022-08-01T00:55:34;21.63;;;13.65;;
32876;SDS011;19226;51.600;8.034;2022-08-01T01:00:33;22.17;;;13.23;;
32876;SDS011;19226;51.600;8.034;2022-08-01T01:03:00;22.53;;;14.60;;
32876;SDS011;19226;51.600;8.034;2022-08-01T01:05:27;20.60;;;14.02;;
32876;SDS011;19226;51.600;8.034;2022-08-01T01:07:56;23.90;;;15.00;;
32876;SDS011;19226;51.600;8.034;2022-08-01T01:10:40;21.40;;;14.73;;
32876;SDS011;19226;51.600;8.034;2022-08-01T01:13:35;15.38;;;13.40;;
32876;SDS011;19226;51.600;8.034;2022-08-01T01:16:17;21.23;;;14.82;;
32876;SDS011;19226;51.600;8.034;2022-08-01T01:29:52;21.15;;;14.40;;
32876;SDS011;19226;51.600;8.034;2022-08-01T01:32:29;30.20;;;15.80;;
32876;SDS011;19226;51.600;8.034;2022-08-01T01:35:05;27.20;;;14.38;;
32876;SDS011;19226;51.600;8.034;2022-08-01T01:37:34;24.85;;;15.27;;
32876;SDS011;19226;51.600;8.034;2022-08-01T01:40:03;19.48;;;15.65;;
32876;SDS011;19226;51.600;8.034;2022-08-01T01:42:30;22.90;;;14.93;;
32876;SDS011;19226;51.600;8.034;2022-08-01T01:45:00;24.45;;;16.55;;
32876;SDS011;19226;51.600;8.034;2022-08-01T01:47:27;24.30;;;16.35;;
32876;SDS011;19226;51.600;8.034;2022-08-01T01:49:55;22.88;;;16.40;;
32876;SDS011;19226;51.600;8.034;2022-08-01T01:52:22;22.02;;;17.55;;
32876;SDS011;19226;51.600;8.034;2022-08-01T01:54:49;25.73;;;17.00;;
32876;SDS011;19226;51.600;8.034;2022-08-01T01:57:18;29.02;;;18.48;;
32876;SDS011;19226;51.600;8.034;2022-08-01T01:59:46;26.10;;;18.63;;
32876;SDS011;19226;51.600;8.034;2022-08-01T02:02:15;30.98;;;18.27;;
32876;SDS011;19226;51.600;8.034;2022-08-01T02:04:43;27.98;;;18.58;;
32876;SDS011;19226;51.600;8.034;2022-08-01T02:07:13;22.88;;;18.05;;
32876;SDS011;19226;51.600;8.034;2022-08-01T02:09:43;21.70;;;18.38;;
32876;SDS011;19226;51.600;8.034;2022-08-01T02:12:12;30.88;;;18.05;;
32876;SDS011;19226;51.600;8.034;2022-08-01T02:14:41;27.23;;;18.85;;
32876;SDS011;19226;51.600;8.034;2022-08-01T02:17:11;26.48;;;19.10;;
32876;SDS011;19226;51.600;8.034;2022-08-01T02:19:43;27.70;;;17.95;;
32876;SDS011;19226;51.600;8.034;2022-08-01T02:22:11;31.02;;;16.17;;
32876;SDS011;19226;51.600;8.034;2022-08-01T02:24:55;26.55;;;17.95;;
32876;SDS011;19226;51.600;8.034;2022-08-01T02:27:33;25.20;;;17.70;;
32876;SDS011;19226;51.600;8.034;2022-08-01T02:30:04;22.83;;;17.70;;
32876;SDS011;19226;51.600;8.034;2022-08-01T02:32:40;26.33;;;18.98;;
32876;SDS011;19226;51.600;8.034;2022-08-01T02:35:11;26.50;;;19.05;;
32876;SDS011;19226;51.600;8.034;2022-08-01T02:37:55;24.25;;;18.83;;
32876;SDS011;19226;51.600;8.034;2022-08-01T02:40:28;23.17;;;17.77;;
32876;SDS011;19226;51.600;8.034;2022-08-01T02:42:58;28.83;;;19.17;;
32876;SDS011;19226;51.600;8.034;2022-08-01T02:45:27;31.65;;;19.85;;
32876;SDS011;19226;51.600;8.034;2022-08-01T02:48:03;9.77;;;8.48;;
32876;SDS011;19226;51.600;8.034;2022-08-01T02:50:35;6.97;;;5.70;;
32876;SDS011;19226;51.600;8.034;2022-08-01T02:53:02;8.55;;;4.93;;
32876;SDS011;19226;51.600;8.034;2022-08-01T02:55:31;7.03;;;5.28;;
32876;SDS011;19226;51.600;8.034;2022-08-01T02:58:00;12.85;;;6.57;;
32876;SDS011;19226;51.600;8.034;2022-08-01T03:00:28;11.38;;;6.97;;
32876;SDS011;19226;51.600;8.034;2022-08-01T03:08:10;12.18;;;8.05;;
32876;SDS011;19226;51.600;8.034;2022-08-01T03:13:29;13.40;;;8.70;;
32876;SDS011;19226;51.600;8.034;2022-08-01T03:15:57;17.50;;;9.32;;
32876;SDS011;19226;51.600;8.034;2022-08-01T03:18:25;14.07;;;8.77;;
32876;SDS011;19226;51.600;8.034;2022-08-01T03:20:56;20.40;;;9.75;;
32876;SDS011;19226;51.600;8.034;2022-08-01T03:23:24;13.75;;;9.10;;
32876;SDS011;19226;51.600;8.034;2022-08-01T03:25:51;15.98;;;10.40;;
32876;SDS011;19226;51.600;8.034;2022-08-01T03:28:21;17.73;;;9.23;;
32876;SDS011;19226;51.600;8.034;2022-08-01T03:30:48;14.52;;;9.27;;
32876;SDS011;19226;51.600;8.034;2022-08-01T03:33:19;18.08;;;9.50;;
32876;SDS011;19226;51.600;8.034;2022-08-01T03:35:46;16.02;;;9.52;;
32876;SDS011;19226;51.600;8.034;2022-08-01T03:38:17;14.32;;;9.10;;
32876;SDS011;19226;51.600;8.034;2022-08-01T03:40:53;16.17;;;9.90;;
32876;SDS011;19226;51.600;8.034;2022-08-01T03:43:30;15.02;;;9.43;;
32876;SDS011;19226;51.600;8.034;2022-08-01T03:48:55;13.02;;;9.60;;
32876;SDS011;19226;51.600;8.034;2022-08-01T03:51:28;15.65;;;9.32;;
32876;SDS011;19226;51.600;8.034;2022-08-01T03:53:56;16.20;;;9.60;;
32876;SDS011;19226;51.600;8.034;2022-08-01T03:56:28;17.33;;;10.55;;
32876;SDS011;19226;51.600;8.034;2022-08-01T03:58:58;12.48;;;9.60;;
32876;SDS011;19226;51.600;8.034;2022-08-01T04:01:27;18.00;;;10.43;;
32876;SDS011;19226;51.600;8.034;2022-08-01T04:06:20;11.57;;;9.43;;
32876;SDS011;19226;51.600;8.034;2022-08-01T04:08:47;15.18;;;10.55;;
32876;SDS011;19226;51.600;8.034;2022-08-01T04:11:23;18.10;;;11.05;;
32876;SDS011;19226;51.600;8.034;2022-08-01T04:13:51;17.92;;;10.88;;
32876;SDS011;19226;51.600;8.034;2022-08-01T04:16:21;20.42;;;11.63;;
32876;SDS011;19226;51.600;8.034;2022-08-01T04:18:48;17.02;;;11.60;;
32876;SDS011;19226;51.600;8.034;2022-08-01T04:21:18;17.95;;;11.10;;
32876;SDS011;19226;51.600;8.034;2022-08-01T04:23:48;17.90;;;11.55;;
32876;SDS011;19226;51.600;8.034;2022-08-01T04:26:17;21.63;;;11.60;;
32876;SDS011;19226;51.600;8.034;2022-08-01T04:28:47;19.05;;;12.10;;
32876;SDS011;19226;51.600;8.034;2022-08-01T04:31:15;22.17;;;12.88;;
32876;SDS011;19226;51.600;8.034;2022-08-01T04:33:43;20.27;;;11.02;;
32876;SDS011;19226;51.600;8.034;2022-08-01T04:36:13;16.17;;;11.10;;
32876;SDS011;19226;51.600;8.034;2022-08-01T04:38:42;19.30;;;11.23;;
32876;SDS011;19226;51.600;8.034;2022-08-01T04:41:12;17.05;;;10.02;;
32876;SDS011;19226;51.600;8.034;2022-08-01T04:43:41;19.25;;;10.98;;
32876;SDS011;19226;51.600;8.034;2022-08-01T04:46:09;19.23;;;10.07;;
32876;SDS011;19226;51.600;8.034;2022-08-01T04:48:40;17.90;;;11.13;;
32876;SDS011;19226;51.600;8.034;2022-08-01T04:51:24;15.77;;;9.95;;
32876;SDS011;19226;51.600;8.034;2022-08-01T04:53:50;15.85;;;8.90;;
32876;SDS011;19226;51.600;8.034;2022-08-01T04:56:18;13.48;;;9.32;;
32876;SDS011;19226;51.600;8.034;2022-08-01T04:58:45;11.68;;;9.60;;
32876;SDS011;19226;51.600;8.034;2022-08-01T05:01:14;15.80;;;8.82;;
32876;SDS011;19226;51.600;8.034;2022-08-01T05:03:40;12.32;;;8.35;;
32876;SDS011;19226;51.600;8.034;2022-08-01T05:06:09;14.75;;;8.65;;
32876;SDS011;19226;51.600;8.034;2022-08-01T05:08:37;12.57;;;7.90;;
32876;SDS011;19226;51.600;8.034;2022-08-01T05:11:03;12.02;;;8.18;;
32876;SDS011;19226;51.600;8.034;2022-08-01T05:13:29;11.93;;;7.63;;
32876;SDS011;19226;51.600;8.034;2022-08-01T05:15:58;11.30;;;7.80;;
32876;SDS011;19226;51.600;8.034;2022-08-01T05:18:26;16.23;;;7.60;;
32876;SDS011;19226;51.600;8.034;2022-08-01T05:20:52;11.15;;;7.35;;
32876;SDS011;19226;51.600;8.034;2022-08-01T05:23:18;13.13;;;8.38;;
32876;SDS011;19226;51.600;8.034;2022-08-01T05:25:44;10.32;;;6.75;;
32876;SDS011;19226;51.600;8.034;2022-08-01T05:28:10;10.63;;;7.97;;
32876;SDS011;19226;51.600;8.034;2022-08-01T05:30:38;11.40;;;7.60;;
32876;SDS011;19226;51.600;8.034;2022-08-01T05:33:04;10.25;;;7.53;;
32876;SDS011;19226;51.600;8.034;2022-08-01T05:35:37;12.13;;;7.78;;
32876;SDS011;19226;51.600;8.034;2022-08-01T05:38:03;12.68;;;7.47;;
32876;SDS011;19226;51.600;8.034;2022-08-01T05:40:30;11.70;;;7.25;;
32876;SDS011;19226;51.600;8.034;2022-08-01T05:42:56;9.27;;;7.22;;
32876;SDS011;19226;51.600;8.034;2022-08-01T05:45:23;14.80;;;7.63;;
32876;SDS011;19226;51.600;8.034;2022-08-01T05:47:54;10.73;;;7.07;;
32876;SDS011;19226;51.600;8.034;2022-08-01T05:50:21;10.48;;;7.63;;
32876;SDS011;19226;51.600;8.034;2022-08-01T05:55:34;11.07;;;7.05;;
32876;SDS011;19226;51.600;8.034;2022-08-01T05:58:02;15.70;;;5.93;;
32876;SDS011;19226;51.600;8.034;2022-08-01T06:00:28;12.73;;;7.18;;
32876;SDS011;19226;51.600;8.034;2022-08-01T06:02:54;7.40;;;6.22;;
32876;SDS011;19226;51.600;8.034;2022-08-01T06:05:21;12.15;;;5.88;;
32876;SDS011;19226;51.600;8.034;2022-08-01T06:07:47;10.07;;;6.47;;
32876;SDS011;19226;51.600;8.034;2022-08-01T06:10:13;11.95;;;6.65;;
32876;SDS011;19226;51.600;8.034;2022-08-01T06:12:39;8.75;;;6.20;;
32876;SDS011;19226;51.600;8.034;2022-08-01T06:15:06;9.82;;;6.18;;
32876;SDS011;19226;51.600;8.034;2022-08-01T06:17:34;8.40;;;5.95;;
32876;SDS011;19226;51.600;8.034;2022-08-01T06:19:59;10.52;;;6.10;;
32876;SDS011;19226;51.600;8.034;2022-08-01T06:22:26;8.18;;;5.60;;
32876;SDS011;19226;51.600;8.034;2022-08-01T06:24:52;7.25;;;5.32;;
32876;SDS011;19226;51.600;8.034;2022-08-01T06:27:18;15.13;;;5.38;;
32876;SDS011;19226;51.600;8.034;2022-08-01T06:29:44;7.53;;;5.30;;
32876;SDS011;19226;51.600;8.034;2022-08-01T06:32:14;9.63;;;6.07;;
32876;SDS011;19226;51.600;8.034;2022-08-01T06:34:40;6.97;;;5.28;;
32876;SDS011;19226;51.600;8.034;2022-08-01T06:37:08;13.38;;;5.78;;
32876;SDS011;19226;51.600;8.034;2022-08-01T06:39:34;9.90;;;6.28;;
32876;SDS011;19226;51.600;8.034;2022-08-01T06:42:00;9.00;;;5.88;;
32876;SDS011;19226;51.600;8.034;2022-08-01T06:44:26;7.95;;;5.30;;
32876;SDS011;19226;51.600;8.034;2022-08-01T06:46:53;7.45;;;5.47;;
32876;SDS011;19226;51.600;8.034;2022-08-01T06:49:19;5.07;;;4.07;;
32876;SDS011;19226;51.600;8.034;2022-08-01T06:51:45;8.73;;;4.20;;
32876;SDS011;19226;51.600;8.034;2022-08-01T06:54:11;6.72;;;4.78;;
32876;SDS011;19226;51.600;8.034;2022-08-01T06:56:37;5.40;;;4.38;;
32876;SDS011;19226;51.600;8.034;2022-08-01T06:59:03;5.13;;;4.13;;
32876;SDS011;19226;51.600;8.034;2022-08-01T07:01:29;6.40;;;3.80;;
32876;SDS011;19226;51.600;8.034;2022-08-01T07:03:55;12.10;;;4.70;;
32876;SDS011;19226;51.600;8.034;2022-08-01T07:06:22;5.43;;;3.67;;
32876;SDS011;19226;51.600;8.034;2022-08-01T07:08:49;4.57;;;3.70;;
32876;SDS011;19226;51.600;8.034;2022-08-01T07:11:16;4.38;;;3.83;;
32876;SDS011;19226;51.600;8.034;2022-08-01T07:13:42;9.85;;;4.05;;
32876;SDS011;19226;51.600;8.034;2022-08-01T07:16:09;4.13;;;3.50;;
32876;SDS011;19226;51.600;8.034;2022-08-01T07:18:35;5.38;;;3.90;;
32876;SDS011;19226;51.600;8.034;2022-08-01T07:21:01;5.15;;;3.13;;
32876;SDS011;19226;51.600;8.034;2022-08-01T07:23:27;5.00;;;3.00;;
32876;SDS011;19226;51.600;8.034;2022-08-01T07:25:54;4.38;;;2.90;;
32876;SDS011;19226;51.600;8.034;2022-08-01T07:28:20;3.17;;;2.88;;
32876;SDS011;19226;51.600;8.034;2022-08-01T07:30:46;3.13;;;2.72;;
32876;SDS011;19226;51.600;8.034;2022-08-01T07:33:19;2.40;;;2.20;;
32876;SDS011;19226;51.600;8.034;2022-08-01T07:35:47;2.33;;;1.80;;
32876;SDS011;19226;51.600;8.034;2022-08-01T07:38:13;4.40;;;1.80;;
32876;SDS011;19226;51.600;8.034;2022-08-01T07:40:43;2.03;;;1.60;;
32876;SDS011;19226;51.600;8.034;2022-08-01T07:43:09;2.50;;;1.92;;
32876;SDS011;19226;51.600;8.034;2022-08-01T07:45:35;2.95;;;1.67;;
32876;SDS011;19226;51.600;8.034;2022-08-01T07:48:02;2.67;;;1.30;;
32876;SDS011;19226;51.600;8.034;2022-08-01T07:50:51;1.10;;;1.00;;
32876;SDS011;19226;51.600;8.034;2022-08-01T07:53:18;1.48;;;1.38;;
32876;SDS011;19226;51.600;8.034;2022-08-01T07:55:44;2.20;;;1.40;;
32876;SDS011;19226;51.600;8.034;2022-08-01T07:58:10;2.55;;;1.10;;
32876;SDS011;19226;51.600;8.034;2022-08-01T08:00:36;1.27;;;1.17;;
32876;SDS011;19226;51.600;8.034;2022-08-01T08:03:03;2.28;;;1.30;;
32876;SDS011;19226;51.600;8.034;2022-08-01T08:05:29;1.90;;;1.30;;
32876;SDS011;19226;51.600;8.034;2022-08-01T08:07:56;2.42;;;1.63;;
32876;SDS011;19226;51.600;8.034;2022-08-01T08:10:22;2.20;;;1.60;;
32876;SDS011;19226;51.600;8.034;2022-08-01T08:12:49;1.63;;;1.52;;
32876;SDS011;19226;51.600;8.034;2022-08-01T08:15:15;1.90;;;1.80;;
32876;SDS011;19226;51.600;8.034;2022-08-01T08:17:41;5.65;;;1.65;;
32876;SDS011;19226;51.600;8.034;2022-08-01T08:20:07;2.47;;;2.28;;
32876;SDS011;19226;51.600;8.034;2022-08-01T08:22:34;2.47;;;2.05;;
32876;SDS011;19226;51.600;8.034;2022-08-01T08:25:01;2.65;;;1.90;;
32876;SDS011;19226;51.600;8.034;2022-08-01T08:27:27;4.35;;;2.25;;
32876;SDS011;19226;51.600;8.034;2022-08-01T08:30:12;3.70;;;1.63;;
32876;SDS011;19226;51.600;8.034;2022-08-01T08:32:39;1.98;;;1.70;;
32876;SDS011;19226;51.600;8.034;2022-08-01T08:35:05;1.50;;;1.40;;
32876;SDS011;19226;51.600;8.034;2022-08-01T08:37:34;1.75;;;1.50;;
32876;SDS011;19226;51.600;8.034;2022-08-01T08:40:01;2.20;;;2.00;;
32876;SDS011;19226;51.600;8.034;2022-08-01T08:42:31;4.32;;;2.47;;
32876;SDS011;19226;51.600;8.034;2022-08-01T08:44:57;2.88;;;2.63;;
32876;SDS011;19226;51.600;8.034;2022-08-01T08:47:25;4.55;;;3.17;;
32876;SDS011;19226;51.600;8.034;2022-08-01T08:49:54;4.47;;;4.15;;
32876;SDS011;19226;51.600;8.034;2022-08-01T08:52:21;5.35;;;4.95;;
32876;SDS011;19226;51.600;8.034;2022-08-01T08:54:49;6.32;;;5.85;;
32876;SDS011;19226;51.600;8.034;2022-08-01T08:57:17;6.55;;;6.05;;
32876;SDS011;19226;51.600;8.034;2022-08-01T08:59:45;8.32;;;7.68;;
32876;SDS011;19226;51.600;8.034;2022-08-01T09:02:12;8.05;;;7.30;;
32876;SDS011;19226;51.600;8.034;2022-08-01T09:04:38;7.63;;;6.85;;
32876;SDS011;19226;51.600;8.034;2022-08-01T09:07:05;8.18;;;7.45;;
32876;SDS011;19226;51.600;8.034;2022-08-01T09:12:22;9.18;;;6.65;;
32876;SDS011;19226;51.600;8.034;2022-08-01T09:14:51;8.75;;;8.02;;
32876;SDS011;19226;51.600;8.034;2022-08-01T09:17:20;10.15;;;9.25;;
32876;SDS011;19226;51.600;8.034;2022-08-01T09:19:47;3.88;;;3.50;;
32876;SDS011;19226;51.600;8.034;2022-08-01T09:22:18;1.20;;;0.77;;
32876;SDS011;19226;51.600;8.034;2022-08-01T09:25:04;3.53;;;1.00;;
32876;SDS011;19226;51.600;8.034;2022-08-01T09:27:32;1.45;;;1.00;;
32876;SDS011;19226;51.600;8.034;2022-08-01T09:30:18;2.50;;;1.02;;
32876;SDS011;19226;51.600;8.034;2022-08-01T09:32:54;3.83;;;1.23;;
32876;SDS011;19226;51.600;8.034;2022-08-01T09:35:29;3.13;;;1.05;;
32876;SDS011;19226;51.600;8.034;2022-08-01T09:38:14;0.90;;;0.80;;
32876;SDS011;19226;51.600;8.034;2022-08-01T09:40:48;1.00;;;0.90;;
32876;SDS011;19226;51.600;8.034;2022-08-01T09:43:20;2.22;;;0.88;;
32876;SDS011;19226;51.600;8.034;2022-08-01T09:45:48;0.90;;;0.90;;
32876;SDS011;19226;51.600;8.034;2022-08-01T09:48:14;2.97;;;0.90;;
32876;SDS011;19226;51.600;8.034;2022-08-01T09:53:10;1.25;;;0.82;;
32876;SDS011;19226;51.600;8.034;2022-08-01T09:55:38;1.00;;;1.00;;
32876;SDS011;19226;51.600;8.034;2022-08-01T09:58:05;1.40;;;1.23;;
32876;SDS011;19226;51.600;8.034;2022-08-01T10:00:32;1.95;;;1.50;;
32876;SDS011;19226;51.600;8.034;2022-08-01T10:03:00;3.70;;;2.00;;
32876;SDS011;19226;51.600;8.034;2022-08-01T10:05:55;2.40;;;1.77;;
32876;SDS011;19226;51.600;8.034;2022-08-01T10:08:22;1.70;;;1.60;;
32876;SDS011;19226;51.600;8.034;2022-08-01T10:13:39;1.90;;;1.80;;
32876;SDS011;19226;51.600;8.034;2022-08-01T10:16:06;1.95;;;1.85;;
32876;SDS011;19226;51.600;8.034;2022-08-01T10:18:35;2.28;;;2.08;;
32876;SDS011;19226;51.600;8.034;2022-08-01T10:21:03;2.03;;;1.90;;
32876;SDS011;19226;51.600;8.034;2022-08-01T10:23:33;2.40;;;2.15;;
32876;SDS011;19226;51.600;8.034;2022-08-01T10:26:04;6.47;;;2.20;;
32876;SDS011;19226;51.600;8.034;2022-08-01T10:28:32;3.22;;;2.50;;
32876;SDS011;19226;51.600;8.034;2022-08-01T10:31:01;3.28;;;1.88;;
32876;SDS011;19226;51.600;8.034;2022-08-01T10:33:28;1.50;;;1.40;;
32876;SDS011;19226;51.600;8.034;2022-08-01T10:35:56;2.55;;;1.60;;
32876;SDS011;19226;51.600;8.034;2022-08-01T10:38:23;4.40;;;1.70;;
32876;SDS011;19226;51.600;8.034;2022-08-01T10:40:49;2.78;;;2.28;;
32876;SDS011;19226;51.600;8.034;2022-08-01T10:43:19;2.08;;;1.63;;
32876;SDS011;19226;51.600;8.034;2022-08-01T10:45:45;1.90;;;1.70;;
32876;SDS011;19226;51.600;8.034;2022-08-01T10:48:16;2.65;;;2.45;;
32876;SDS011;19226;51.600;8.034;2022-08-01T10:50:54;2.70;;;1.92;;
32876;SDS011;19226;51.600;8.034;2022-08-01T10:53:23;2.10;;;2.00;;
32876;SDS011;19226;51.600;8.034;2022-08-01T10:55:59;2.25;;;2.05;;
32876;SDS011;19226;51.600;8.034;2022-08-01T11:09:01;1.17;;;1.10;;
32876;SDS011;19226;51.600;8.034;2022-08-01T11:12:01;1.40;;;1.30;;
32876;SDS011;19226;51.600;8.034;2022-08-01T11:14:34;1.63;;;0.95;;
32876;SDS011;19226;51.600;8.034;2022-08-01T11:17:35;2.28;;;0.80;;
32876;SDS011;19226;51.600;8.034;2022-08-01T11:25:27;3.13;;;0.60;;
32876;SDS011;19226;51.600;8.034;2022-08-01T11:33:12;0.30;;;0.30;;
32876;SDS011;19226;51.600;8.034;2022-08-01T11:38:36;0.20;;;0.20;;
32876;SDS011;19226;51.600;8.034;2022-08-01T11:43:58;0.35;;;0.25;;
32876;SDS011;19226;51.600;8.034;2022-08-01T11:47:06;0.25;;;0.25;;
32876;SDS011;19226;51.600;8.034;2022-08-01T11:49:47;3.35;;;0.40;;
32876;SDS011;19226;51.600;8.034;2022-08-01T11:52:24;1.27;;;0.30;;
32876;SDS011;19226;51.600;8.034;2022-08-01T11:54:54;2.38;;;0.40;;
32876;SDS011;19226;51.600;8.034;2022-08-01T11:57:27;0.40;;;0.35;;
32876;SDS011;19226;51.600;8.034;2022-08-01T12:00:15;1.08;;;0.50;;
32876;SDS011;19226;51.600;8.034;2022-08-01T12:02:44;0.65;;;0.40;;
32876;SDS011;19226;51.600;8.034;2022-08-01T12:05:12;0.60;;;0.30;;
32876;SDS011;19226;51.600;8.034;2022-08-01T12:07:42;0.22;;;0.20;;
32876;SDS011;19226;51.600;8.034;2022-08-01T12:10:16;0.85;;;0.40;;
32876;SDS011;19226;51.600;8.034;2022-08-01T12:15:16;1.45;;;0.55;;
32876;SDS011;19226;51.600;8.034;2022-08-01T12:17:45;1.73;;;0.30;;
32876;SDS011;19226;51.600;8.034;2022-08-01T12:20:14;0.68;;;0.20;;
32876;SDS011;19226;51.600;8.034;2022-08-01T12:22:44;0.20;;;0.15;;
32876;SDS011;19226;51.600;8.034;2022-08-01T12:25:12;0.45;;;0.20;;
32876;SDS011;19226;51.600;8.034;2022-08-01T12:27:40;0.20;;;0.15;;
32876;SDS011;19226;51.600;8.034;2022-08-01T12:30:08;0.50;;;0.20;;
32876;SDS011;19226;51.600;8.034;2022-08-01T12:35:26;0.05;;;0.05;;
32876;SDS011;19226;51.600;8.034;2022-08-01T12:37:57;0.10;;;0.10;;
32876;SDS011;19226;51.600;8.034;2022-08-01T12:40:26;0.32;;;0.30;;
32876;SDS011;19226;51.600;8.034;2022-08-01T12:42:54;0.10;;;0.10;;
32876;SDS011;19226;51.600;8.034;2022-08-01T12:48:02;0.22;;;0.22;;
32876;SDS011;19226;51.600;8.034;2022-08-01T12:50:34;0.17;;;0.10;;
32876;SDS011;19226;51.600;8.034;2022-08-01T12:53:04;0.40;;;0.20;;
32876;SDS011;19226;51.600;8.034;2022-08-01T12:55:32;0.03;;;0.03;;
32876;SDS011;19226;51.600;8.034;2022-08-01T13:00:33;0.20;;;0.10;;
32876;SDS011;19226;51.600;8.034;2022-08-01T13:03:01;0.63;;;0.20;;
32876;SDS011;19226;51.600;8.034;2022-08-01T13:06:09;0.80;;;0.20;;
32876;SDS011;19226;51.600;8.034;2022-08-01T13:08:34;1.73;;;0.30;;
32876;SDS011;19226;51.600;8.034;2022-08-01T13:11:05;0.85;;;0.40;;
32876;SDS011;19226;51.600;8.034;2022-08-01T13:13:38;1.75;;;0.57;;
32876;SDS011;19226;51.600;8.034;2022-08-01T13:16:10;1.80;;;0.20;;
32876;SDS011;19226;51.600;8.034;2022-08-01T13:18:37;0.93;;;0.30;;
32876;SDS011;19226;51.600;8.034;2022-08-01T13:23:39;0.82;;;0.30;;
32876;SDS011;19226;51.600;8.034;2022-08-01T13:26:06;0.70;;;0.50;;
32876;SDS011;19226;51.600;8.034;2022-08-01T13:28:34;1.45;;;0.20;;
32876;SDS011;19226;51.600;8.034;2022-08-01T13:33:58;0.30;;;0.20;;
32876;SDS011;19226;51.600;8.034;2022-08-01T13:36:25;0.50;;;0.20;;
32876;SDS011;19226;51.600;8.034;2022-08-01T13:38:53;0.60;;;0.28;;
32876;SDS011;19226;51.600;8.034;2022-08-01T13:41:39;3.65;;;0.30;;
32876;SDS011;19226;51.600;8.034;2022-08-01T13:44:05;0.63;;;0.30;;
32876;SDS011;19226;51.600;8.034;2022-08-01T13:46:34;0.30;;;0.25;;
32876;SDS011;19226;51.600;8.034;2022-08-01T13:49:04;0.30;;;0.30;;
32876;SDS011;19226;51.600;8.034;2022-08-01T13:51:32;0.30;;;0.20;;
32876;SDS011;19226;51.600;8.034;2022-08-01T13:53:59;0.20;;;0.17;;
32876;SDS011;19226;51.600;8.034;2022-08-01T13:56:25;0.10;;;0.10;;
32876;SDS011;19226;51.600;8.034;2022-08-01T13:58:56;0.80;;;0.30;;
32876;SDS011;19226;51.600;8.034;2022-08-01T14:01:22;0.45;;;0.25;;
32876;SDS011;19226;51.600;8.034;2022-08-01T14:03:50;0.55;;;0.15;;
32876;SDS011;19226;51.600;8.034;2022-08-01T14:06:17;1.13;;;0.40;;
32876;SDS011;19226;51.600;8.034;2022-08-01T14:08:48;0.40;;;0.30;;
32876;SDS011;19226;51.600;8.034;2022-08-01T14:11:15;0.43;;;0.40;;
32876;SDS011;19226;51.600;8.034;2022-08-01T14:13:43;0.20;;;0.20;;
32876;SDS011;19226;51.600;8.034;2022-08-01T14:16:09;1.33;;;0.40;;
32876;SDS011;19226;51.600;8.034;2022-08-01T14:18:35;1.17;;;0.47;;
32876;SDS011;19226;51.600;8.034;2022-08-01T14:21:01;3.88;;;0.70;;
32876;SDS011;19226;51.600;8.034;2022-08-01T14:23:30;1.75;;;0.60;;
32876;SDS011;19226;51.600;8.034;2022-08-01T14:25:56;2.10;;;0.40;;
32876;SDS011;19226;51.600;8.034;2022-08-01T14:28:23;1.48;;;0.73;;
32876;SDS011;19226;51.600;8.034;2022-08-01T14:30:53;0.68;;;0.52;;
32876;SDS011;19226;51.600;8.034;2022-08-01T14:33:20;0.73;;;0.50;;
32876;SDS011;19226;51.600;8.034;2022-08-01T14:35:47;0.55;;;0.50;;
32876;SDS011;19226;51.600;8.034;2022-08-01T14:38:13;1.95;;;0.40;;
32876;SDS011;19226;51.600;8.034;2022-08-01T14:40:39;1.40;;;0.52;;
32876;SDS011;19226;51.600;8.034;2022-08-01T14:43:08;1.30;;;0.50;;
32876;SDS011;19226;51.600;8.034;2022-08-01T14:45:34;4.03;;;0.43;;
32876;SDS011;19226;51.600;8.034;2022-08-01T14:48:02;0.80;;;0.50;;
32876;SDS011;19226;51.600;8.034;2022-08-01T14:50:28;0.50;;;0.50;;
32876;SDS011;19226;51.600;8.034;2022-08-01T14:52:54;1.45;;;0.47;;
32876;SDS011;19226;51.600;8.034;2022-08-01T14:55:22;4.25;;;0.88;;
32876;SDS011;19226;51.600;8.034;2022-08-01T14:57:51;2.08;;;0.63;;
32876;SDS011;19226;51.600;8.034;2022-08-01T15:00:17;1.13;;;0.80;;
32876;SDS011;19226;51.600;8.034;2022-08-01T15:02:45;2.67;;;0.90;;
32876;SDS011;19226;51.600;8.034;2022-08-01T15:05:11;1.23;;;0.63;;
32876;SDS011;19226;51.600;8.034;2022-08-01T15:07:37;0.70;;;0.35;;
32876;SDS011;19226;51.600;8.034;2022-08-01T15:10:04;0.35;;;0.20;;
32876;SDS011;19226;51.600;8.034;2022-08-01T15:12:31;2.28;;;0.63;;
32876;SDS011;19226;51.600;8.034;2022-08-01T15:14:57;0.45;;;0.30;;
32876;SDS011;19226;51.600;8.034;2022-08-01T15:17:24;0.80;;;0.60;;
32876;SDS011;19226;51.600;8.034;2022-08-01T15:19:55;1.52;;;0.47;;
32876;SDS011;19226;51.600;8.034;2022-08-01T15:22:24;0.93;;;0.45;;
32876;SDS011;19226;51.600;8.034;2022-08-01T15:24:51;1.52;;;0.50;;
32876;SDS011;19226;51.600;8.034;2022-08-01T15:27:18;1.03;;;0.40;;
32876;SDS011;19226;51.600;8.034;2022-08-01T15:29:46;0.40;;;0.40;;
32876;SDS011;19226;51.600;8.034;2022-08-01T15:32:12;6.13;;;0.40;;
32876;SDS011;19226;51.600;8.034;2022-08-01T15:34:39;2.45;;;0.20;;
32876;SDS011;19226;51.600;8.034;2022-08-01T15:37:06;1.25;;;0.40;;
32876;SDS011;19226;51.600;8.034;2022-08-01T15:39:33;0.30;;;0.30;;
32876;SDS011;19226;51.600;8.034;2022-08-01T15:42:02;1.45;;;0.63;;
32876;SDS011;19226;51.600;8.034;2022-08-01T15:44:32;1.02;;;0.30;;
32876;SDS011;19226;51.600;8.034;2022-08-01T15:46:59;0.50;;;0.30;;
32876;SDS011;19226;51.600;8.034;2022-08-01T15:49:26;0.70;;;0.50;;
32876;SDS011;19226;51.600;8.034;2022-08-01T15:51:53;1.45;;;0.43;;
32876;SDS011;19226;51.600;8.034;2022-08-01T15:54:19;2.25;;;0.50;;
32876;SDS011;19226;51.600;8.034;2022-08-01T15:56:45;0.50;;;0.45;;
32876;SDS011;19226;51.600;8.034;2022-08-01T15:59:14;0.30;;;0.30;;
32876;SDS011;19226;51.600;8.034;2022-08-01T16:01:40;0.60;;;0.40;;
32876;SDS011;19226;51.600;8.034;2022-08-01T16:04:06;1.35;;;0.28;;
32876;SDS011;19226;51.600;8.034;2022-08-01T16:06:33;0.38;;;0.30;;
32876;SDS011;19226;51.600;8.034;2022-08-01T16:09:02;2.17;;;0.40;;
32876;SDS011;19226;51.600;8.034;2022-08-01T16:11:29;0.52;;;0.43;;
32876;SDS011;19226;51.600;8.034;2022-08-01T16:13:56;1.55;;;0.70;;
32876;SDS011;19226;51.600;8.034;2022-08-01T16:16:23;0.60;;;0.60;;
32876;SDS011;19226;51.600;8.034;2022-08-01T16:21:34;0.85;;;0.40;;